createdAt,value
2022-10-11T00:01:25.996Z,24.16
2022-10-11T00:03:30.689Z,24.16
2022-10-11T00:05:35.099Z,24.16
2022-10-11T00:07:39.436Z,24.16
2022-10-11T00:09:43.738Z,24.16
2022-10-11T00:11:48.058Z,24.16
2022-10-11T00:13:52.413Z,24.17
2022-10-11T00:15:56.788Z,24.17
2022-10-11T00:18:05.190Z,24.18
2022-10-11T00:20:09.721Z,24.18
2022-10-11T00:22:14.080Z,24.18
2022-10-11T00:24:18.407Z,24.18
2022-10-11T00:26:22.748Z,24.17
2022-10-11T00:28:27.168Z,24.18
2022-10-11T00:30:31.794Z,24.18
2022-10-11T00:32:36.117Z,24.18
2022-10-11T00:34:40.526Z,24.18
2022-10-11T00:36:44.847Z,24.18
2022-10-11T00:38:49.238Z,24.18
2022-10-11T00:40:53.625Z,24.18
2022-10-11T00:42:57.958Z,24.18
2022-10-11T00:45:02.306Z,24.17
2022-10-11T00:47:06.656Z,24.18
2022-10-11T00:49:11.006Z,24.17
2022-10-11T00:51:15.364Z,24.17
2022-10-11T00:53:19.691Z,24.16
2022-10-11T00:55:24.029Z,24.17
2022-10-11T00:57:28.359Z,24.17
2022-10-11T00:59:32.705Z,24.17
2022-10-11T01:01:37.131Z,24.17
2022-10-11T01:03:41.759Z,24.16
2022-10-11T01:05:46.189Z,24.15
2022-10-11T01:07:50.481Z,24.15
2022-10-11T01:09:54.833Z,24.14
2022-10-11T01:11:59.159Z,24.13
2022-10-11T01:14:03.499Z,24.12
2022-10-11T01:16:08.293Z,24.12
2022-10-11T01:18:12.869Z,24.11
2022-10-11T01:20:17.203Z,24.11
2022-10-11T01:22:21.507Z,24.11
2022-10-11T01:24:25.811Z,24.11
2022-10-11T01:26:30.171Z,24.1
2022-10-11T01:28:34.687Z,24.1
2022-10-11T01:30:39.295Z,24.09
2022-10-11T01:32:43.637Z,24.08
2022-10-11T01:34:47.977Z,24.09
2022-10-11T01:36:52.305Z,24.08
2022-10-11T01:38:56.660Z,24.08
2022-10-11T01:41:00.996Z,24.07
2022-10-11T01:43:05.348Z,24.07
2022-10-11T01:45:09.677Z,24.06
2022-10-11T01:47:14.021Z,24.07
2022-10-11T01:49:18.347Z,24.06
2022-10-11T01:51:22.661Z,24.05
2022-10-11T01:53:27.007Z,24.04
2022-10-11T01:55:31.369Z,24.04
2022-10-11T01:57:35.667Z,24.04
2022-10-11T01:59:39.985Z,24.02
2022-10-11T02:01:44.354Z,24.02
2022-10-11T02:03:48.959Z,24.01
2022-10-11T02:05:53.281Z,24.01
2022-10-11T02:07:57.641Z,24.01
2022-10-11T02:10:01.995Z,24
2022-10-11T02:12:06.368Z,24
2022-10-11T02:14:10.703Z,24
2022-10-11T02:16:15.007Z,23.98
2022-10-11T02:18:19.358Z,23.99
2022-10-11T02:20:23.678Z,23.97
2022-10-11T02:22:28.023Z,23.98
2022-10-11T02:24:32.341Z,23.97
2022-10-11T02:26:36.697Z,23.97
2022-10-11T02:28:41.069Z,23.97
2022-10-11T02:30:45.655Z,23.96
2022-10-11T02:32:50.022Z,23.95
2022-10-11T02:34:54.315Z,23.95
2022-10-11T02:36:58.653Z,23.93
2022-10-11T02:39:03.014Z,23.93
2022-10-11T02:41:07.329Z,23.93
2022-10-11T02:43:11.646Z,23.93
2022-10-11T02:45:15.985Z,23.93
2022-10-11T02:47:20.269Z,23.92
2022-10-11T02:49:24.619Z,23.91
2022-10-11T02:51:28.930Z,23.91
2022-10-11T02:53:33.281Z,23.91
2022-10-11T02:55:37.582Z,23.9
2022-10-11T02:57:41.902Z,23.89
2022-10-11T02:59:46.458Z,23.89
2022-10-11T03:01:50.864Z,23.88
2022-10-11T03:03:55.444Z,23.87
2022-10-11T03:05:59.780Z,23.88
2022-10-11T03:08:04.919Z,23.88
2022-10-11T03:10:09.260Z,23.89
2022-10-11T03:12:13.631Z,23.89
2022-10-11T03:14:17.936Z,23.9
2022-10-11T03:16:22.567Z,23.9
2022-10-11T03:18:26.925Z,23.9
2022-10-11T03:20:31.252Z,23.9
2022-10-11T03:22:35.608Z,23.9
2022-10-11T03:24:39.939Z,23.89
2022-10-11T03:26:44.267Z,23.88
2022-10-11T03:28:48.638Z,23.88
2022-10-11T03:30:53.233Z,23.87
2022-10-11T03:32:57.569Z,23.87
2022-10-11T03:35:01.926Z,23.86
2022-10-11T03:37:06.249Z,23.85
2022-10-11T03:39:10.546Z,23.85
2022-10-11T03:41:14.901Z,23.85
2022-10-11T03:43:19.277Z,23.84
2022-10-11T03:45:23.673Z,23.84
2022-10-11T03:47:28.013Z,23.84
2022-10-11T03:49:32.387Z,23.84
2022-10-11T03:51:36.708Z,23.84
2022-10-11T03:53:41.046Z,23.84
2022-10-11T03:55:45.398Z,23.83
2022-10-11T03:57:49.776Z,23.83
2022-10-11T03:59:54.165Z,23.83
2022-10-11T04:01:58.566Z,23.82
2022-10-11T04:04:03.375Z,23.82
2022-10-11T04:06:08.363Z,23.81
2022-10-11T04:08:13.006Z,23.81
2022-10-11T04:10:17.336Z,23.8
2022-10-11T04:12:21.693Z,23.8
2022-10-11T04:14:26.034Z,23.79
2022-10-11T04:16:30.360Z,23.79
2022-10-11T04:18:34.676Z,23.79
2022-10-11T04:20:39.051Z,23.78
2022-10-11T04:22:43.420Z,23.78
2022-10-11T04:24:47.789Z,23.78
2022-10-11T04:26:52.121Z,23.78
2022-10-11T04:28:56.530Z,23.77
2022-10-11T04:31:01.303Z,23.77
2022-10-11T04:33:05.647Z,23.78
2022-10-11T04:35:09.958Z,23.78
2022-10-11T04:37:14.300Z,23.78
2022-10-11T04:39:18.647Z,23.77
2022-10-11T04:41:23.037Z,23.77
2022-10-11T04:43:27.361Z,23.76
2022-10-11T04:45:31.665Z,23.76
2022-10-11T04:47:36.020Z,23.75
2022-10-11T04:49:40.361Z,23.75
2022-10-11T04:51:44.705Z,23.75
2022-10-11T04:53:49.026Z,23.74
2022-10-11T04:55:53.354Z,23.73
2022-10-11T04:57:57.693Z,23.73
2022-10-11T05:00:02.055Z,23.72
2022-10-11T05:02:06.478Z,23.72
2022-10-11T05:04:11.148Z,23.71
2022-10-11T05:06:15.475Z,23.7
2022-10-11T05:08:19.857Z,23.69
2022-10-11T05:10:24.174Z,23.7
2022-10-11T05:12:28.562Z,23.7
2022-10-11T05:14:32.902Z,23.71
2022-10-11T05:16:37.392Z,23.71
2022-10-11T05:18:41.739Z,23.72
2022-10-11T05:20:46.113Z,23.74
2022-10-11T05:22:50.489Z,23.75
2022-10-11T05:24:54.842Z,23.76
2022-10-11T05:27:03.104Z,23.77
2022-10-11T05:29:07.744Z,23.78
2022-10-11T05:31:12.086Z,23.81
2022-10-11T05:33:16.391Z,23.82
2022-10-11T05:35:20.728Z,23.83
2022-10-11T05:37:25.052Z,23.83
2022-10-11T05:39:29.415Z,23.87
2022-10-11T05:41:33.977Z,23.89
2022-10-11T05:43:38.289Z,23.91
2022-10-11T05:45:42.735Z,23.94
2022-10-11T05:47:47.097Z,23.95
2022-10-11T05:49:51.398Z,23.96
2022-10-11T05:51:56.065Z,23.98
2022-10-11T05:54:00.443Z,23.98
2022-10-11T05:56:05.052Z,24
2022-10-11T05:58:10.687Z,24.01
2022-10-11T06:00:15.095Z,24.01
2022-10-11T06:02:19.481Z,23.99
2022-10-11T06:04:23.804Z,24
2022-10-11T06:06:28.146Z,24.01
2022-10-11T06:08:32.452Z,24.02
2022-10-11T06:10:36.784Z,24.03
2022-10-11T06:12:41.151Z,24.03
2022-10-11T06:14:45.477Z,24.03
2022-10-11T06:16:49.834Z,24.03
2022-10-11T06:18:54.189Z,24.05
2022-10-11T06:20:58.520Z,24.06
2022-10-11T06:23:02.844Z,24.08
2022-10-11T06:25:07.183Z,24.1
2022-10-11T06:27:11.527Z,24.11
2022-10-11T06:29:15.902Z,24.11
2022-10-11T06:31:20.235Z,24.11
2022-10-11T06:33:24.554Z,24.14
2022-10-11T06:35:28.910Z,24.15
2022-10-11T06:37:33.223Z,24.14
2022-10-11T06:39:37.567Z,24.14
2022-10-11T06:41:41.918Z,24.14
2022-10-11T06:43:46.270Z,24.15
2022-10-11T06:45:50.592Z,24.16
2022-10-11T06:47:54.949Z,24.16
2022-10-11T06:49:59.287Z,24.17
2022-10-11T06:52:03.641Z,24.2
2022-10-11T06:54:07.958Z,24.22
2022-10-11T06:56:12.271Z,24.26
2022-10-11T06:58:16.607Z,24.29
2022-10-11T07:00:20.975Z,24.32
2022-10-11T07:02:25.356Z,24.34
2022-10-11T07:04:29.730Z,24.36
2022-10-11T07:06:34.675Z,24.38
2022-10-11T07:08:39.049Z,24.39
2022-10-11T07:10:43.374Z,24.4
2022-10-11T07:12:47.701Z,24.41
2022-10-11T07:14:52.034Z,24.42
2022-10-11T07:16:56.370Z,24.42
2022-10-11T07:19:01.275Z,24.43
2022-10-11T07:21:05.833Z,24.43
2022-10-11T07:23:10.205Z,24.45
2022-10-11T07:25:14.651Z,24.45
2022-10-11T07:27:18.970Z,24.46
2022-10-11T07:29:23.302Z,24.46
2022-10-11T07:31:27.650Z,24.46
2022-10-11T07:33:32.024Z,24.46
2022-10-11T07:35:36.545Z,24.46
2022-10-11T07:37:40.906Z,24.46
2022-10-11T07:39:45.254Z,24.47
2022-10-11T07:41:49.587Z,24.47
2022-10-11T07:43:53.929Z,24.47
2022-10-11T07:45:58.382Z,24.47
2022-10-11T07:48:02.720Z,24.48
2022-10-11T07:50:07.071Z,24.5
2022-10-11T07:52:11.415Z,24.51
2022-10-11T07:54:15.761Z,24.5
2022-10-11T07:56:20.201Z,24.48
2022-10-11T07:58:24.522Z,24.45
2022-10-11T08:00:28.896Z,24.42
2022-10-11T08:02:33.422Z,24.41
2022-10-11T08:04:37.787Z,24.4
2022-10-11T08:06:42.135Z,24.41
2022-10-11T08:08:46.477Z,24.43
2022-10-11T08:10:50.840Z,24.44
2022-10-11T08:12:55.438Z,24.45
2022-10-11T08:15:07.021Z,24.49
2022-10-11T08:17:11.385Z,24.51
2022-10-11T08:19:15.798Z,24.52
2022-10-11T08:21:20.130Z,24.54
2022-10-11T08:23:24.693Z,24.55
2022-10-11T08:25:29.093Z,24.55
2022-10-11T08:27:33.972Z,24.56
2022-10-11T08:29:38.339Z,24.56
2022-10-11T08:31:42.736Z,24.58
2022-10-11T08:33:47.308Z,24.6
2022-10-11T08:35:51.766Z,24.6
2022-10-11T08:37:56.279Z,24.62
2022-10-11T08:40:00.611Z,24.62
2022-10-11T08:42:04.984Z,24.63
2022-10-11T08:44:09.301Z,24.64
2022-10-11T08:46:13.643Z,24.65
2022-10-11T08:48:18.000Z,24.67
2022-10-11T08:50:22.482Z,24.68
2022-10-11T08:52:26.883Z,24.7
2022-10-11T08:54:31.216Z,24.71
2022-10-11T08:56:35.542Z,24.72
2022-10-11T08:58:39.869Z,24.73
2022-10-11T09:00:44.231Z,24.73
2022-10-11T09:03:07.325Z,24.75
2022-10-11T09:05:13.386Z,24.77
2022-10-11T09:07:17.719Z,24.79
2022-10-11T09:09:22.085Z,24.8
2022-10-11T09:11:26.394Z,24.81
2022-10-11T09:13:30.733Z,24.83
2022-10-11T09:15:35.113Z,24.84
2022-10-11T09:17:39.443Z,24.85
2022-10-11T09:19:43.747Z,24.82
2022-10-11T09:21:48.101Z,24.79
2022-10-11T09:23:52.526Z,24.78
2022-10-11T09:25:56.826Z,24.75
2022-10-11T09:28:03.079Z,24.72
2022-10-11T09:30:07.731Z,24.71
2022-10-11T09:32:12.101Z,24.69
2022-10-11T09:34:16.432Z,24.67
2022-10-11T09:36:20.810Z,24.67
2022-10-11T09:38:25.165Z,24.7
2022-10-11T09:40:29.613Z,24.71
2022-10-11T09:42:33.986Z,24.72
2022-10-11T09:44:38.309Z,24.72
2022-10-11T09:46:42.670Z,24.72
2022-10-11T09:48:47.037Z,24.72
2022-10-11T09:50:51.417Z,24.73
2022-10-11T09:52:55.754Z,24.71
2022-10-11T09:55:00.142Z,24.72
2022-10-11T09:57:04.473Z,24.74
2022-10-11T09:59:08.885Z,24.75
2022-10-11T10:01:13.240Z,24.77
2022-10-11T10:03:17.711Z,24.79
2022-10-11T10:05:22.062Z,24.8
2022-10-11T10:07:26.378Z,24.79
2022-10-11T10:09:30.693Z,24.78
2022-10-11T10:11:35.167Z,24.79
2022-10-11T10:13:39.518Z,24.78
2022-10-11T10:15:43.898Z,24.78
2022-10-11T10:17:48.232Z,24.78
2022-10-11T10:19:52.548Z,24.79
2022-10-11T10:21:56.984Z,24.79
2022-10-11T10:24:01.474Z,24.79
2022-10-11T10:26:06.123Z,24.8
2022-10-11T10:28:11.909Z,24.82
2022-10-11T10:30:16.587Z,24.83
2022-10-11T10:32:20.998Z,24.84
2022-10-11T10:34:25.374Z,24.86
2022-10-11T10:36:29.650Z,24.88
2022-10-11T10:38:34.005Z,24.91
2022-10-11T10:40:38.302Z,24.94
2022-10-11T10:42:42.664Z,24.93
2022-10-11T10:44:46.958Z,24.94
2022-10-11T10:46:51.303Z,24.94
2022-10-11T10:49:28.590Z,24.96
2022-10-11T10:51:57.814Z,24.97
2022-10-11T10:54:02.139Z,24.96
2022-10-11T10:56:06.734Z,24.96
2022-10-11T10:58:15.110Z,24.96
2022-10-11T11:00:22.472Z,24.98
2022-10-11T11:02:40.032Z,24.99
2022-10-11T11:04:45.389Z,24.99
2022-10-11T11:06:50.061Z,24.99
2022-10-11T11:08:54.406Z,25
2022-10-11T11:10:58.750Z,25
2022-10-11T11:13:03.108Z,25
2022-10-11T11:15:07.551Z,25.01
2022-10-11T11:17:11.899Z,25.01
2022-10-11T11:19:16.270Z,25.03
2022-10-11T11:21:20.664Z,25.06
2022-10-11T11:23:25.021Z,25.08
2022-10-11T11:25:29.514Z,25.12
2022-10-11T11:27:33.847Z,25.14
2022-10-11T11:29:38.161Z,25.16
2022-10-11T11:31:42.511Z,25.19
2022-10-11T11:33:48.879Z,25.23
2022-10-11T11:35:53.401Z,25.26
2022-10-11T11:38:01.362Z,25.29
2022-10-11T11:40:10.078Z,25.31
2022-10-11T11:42:14.400Z,25.33
2022-10-11T11:44:19.597Z,25.35
2022-10-11T11:46:30.697Z,25.38
2022-10-11T11:48:35.012Z,25.39
2022-10-11T11:50:39.338Z,25.39
2022-10-11T11:52:43.645Z,25.41
2022-10-11T11:54:47.989Z,25.43
2022-10-11T11:56:52.343Z,25.42
2022-10-11T11:58:56.675Z,25.43
2022-10-11T12:01:01.093Z,25.4
2022-10-11T12:03:06.445Z,25.38
2022-10-11T12:05:10.766Z,25.41
2022-10-11T12:07:16.614Z,25.42
2022-10-11T12:09:21.461Z,25.42
2022-10-11T12:11:25.790Z,25.4
2022-10-11T12:13:37.943Z,25.43
2022-10-11T12:15:42.284Z,25.45
2022-10-11T12:17:46.663Z,25.46
2022-10-11T12:19:50.997Z,25.45
2022-10-11T12:21:55.334Z,25.44
2022-10-11T12:23:59.684Z,25.44
2022-10-11T12:26:04.032Z,25.45
2022-10-11T12:28:08.410Z,25.45
2022-10-11T12:30:13.002Z,25.46
2022-10-11T12:32:17.368Z,25.48
2022-10-11T12:34:21.726Z,25.49
2022-10-11T12:36:26.178Z,25.5
2022-10-11T12:38:30.877Z,25.51
2022-10-11T12:40:35.289Z,25.51
2022-10-11T12:42:39.707Z,25.53
2022-10-11T12:44:44.051Z,25.53
2022-10-11T12:46:48.464Z,25.54
2022-10-11T12:48:52.814Z,25.56
2022-10-11T12:51:00.822Z,25.59
2022-10-11T12:53:07.124Z,25.61
2022-10-11T12:55:11.403Z,25.62
2022-10-11T12:57:15.652Z,25.63
2022-10-11T12:59:20.033Z,25.66
2022-10-11T13:01:24.499Z,25.68
2022-10-11T13:03:32.191Z,25.72
2022-10-11T13:05:36.926Z,25.76
2022-10-11T13:07:48.003Z,25.78
2022-10-11T13:09:52.369Z,25.8
2022-10-11T13:11:56.691Z,25.77
2022-10-11T13:14:01.301Z,25.72
2022-10-11T13:16:05.891Z,25.71
2022-10-11T13:18:11.517Z,25.73
2022-10-11T13:20:15.885Z,25.74
2022-10-11T13:22:20.269Z,25.75
2022-10-11T13:24:24.693Z,25.75
2022-10-11T13:26:29.024Z,25.74
2022-10-11T13:28:36.406Z,25.73
2022-10-11T13:30:41.302Z,25.72
2022-10-11T13:32:45.879Z,25.7
2022-10-11T13:34:50.247Z,25.7
2022-10-11T13:36:54.736Z,25.68
2022-10-11T13:38:59.079Z,25.68
2022-10-11T13:41:03.449Z,25.66
2022-10-11T13:43:07.767Z,25.65
2022-10-11T13:45:12.246Z,25.62
2022-10-11T13:47:16.477Z,25.6
2022-10-11T13:49:20.729Z,25.6
2022-10-11T13:51:25.060Z,25.6
2022-10-11T13:53:29.391Z,25.6
2022-10-11T13:55:33.765Z,25.57
2022-10-11T13:57:38.222Z,25.55
2022-10-11T13:59:42.552Z,25.53
2022-10-11T14:01:47.007Z,25.5
2022-10-11T14:03:51.567Z,25.48
2022-10-11T14:05:55.957Z,25.46
2022-10-11T14:08:00.297Z,25.46
2022-10-11T14:10:04.632Z,25.45
2022-10-11T14:12:09.096Z,25.43
2022-10-11T14:14:13.417Z,25.43
2022-10-11T14:16:17.728Z,25.41
2022-10-11T14:18:22.084Z,25.39
2022-10-11T14:20:30.923Z,25.38
2022-10-11T14:22:37.421Z,25.37
2022-10-11T14:24:41.954Z,25.34
2022-10-11T14:26:46.310Z,25.34
2022-10-11T14:28:50.746Z,25.34
2022-10-11T14:30:55.419Z,25.34
2022-10-11T14:32:59.768Z,25.33
2022-10-11T14:35:04.105Z,25.34
2022-10-11T14:37:08.421Z,25.35
2022-10-11T14:39:12.727Z,25.37
2022-10-11T14:41:17.094Z,25.36
2022-10-11T14:43:21.435Z,25.35
2022-10-11T14:45:25.761Z,25.3
2022-10-11T14:47:30.062Z,25.27
2022-10-11T14:49:34.737Z,25.21
2022-10-11T14:51:39.165Z,25.16
2022-10-11T14:53:43.851Z,25.08
2022-10-11T14:55:48.202Z,25.02
2022-10-11T14:57:52.535Z,24.97
2022-10-11T14:59:56.885Z,24.93
2022-10-11T15:02:01.297Z,24.89
2022-10-11T15:04:05.792Z,24.86
2022-10-11T15:06:10.116Z,24.83
2022-10-11T15:08:14.594Z,24.81
2022-10-11T15:10:18.951Z,24.78
2022-10-11T15:12:23.271Z,24.77
2022-10-11T15:14:27.626Z,24.76
2022-10-11T15:16:32.037Z,24.76
2022-10-11T15:18:36.462Z,24.76
2022-10-11T15:20:40.796Z,24.76
2022-10-11T15:22:45.102Z,24.77
2022-10-11T15:24:51.726Z,24.79
2022-10-11T15:26:56.261Z,24.78
2022-10-11T15:29:00.620Z,24.81
2022-10-11T15:31:04.986Z,24.8
2022-10-11T15:33:09.412Z,24.83
2022-10-11T15:35:13.740Z,24.85
2022-10-11T15:37:18.115Z,24.87
2022-10-11T15:39:22.501Z,24.9
2022-10-11T15:41:26.810Z,24.93
2022-10-11T15:43:31.147Z,24.96
2022-10-11T15:45:35.463Z,24.98
2022-10-11T15:47:39.806Z,24.99
2022-10-11T15:49:44.384Z,25.02
2022-10-11T15:51:48.712Z,25.04
2022-10-11T15:53:53.080Z,25.05
2022-10-11T15:55:57.405Z,25.07
2022-10-11T15:58:01.753Z,25.09
2022-10-11T16:00:06.197Z,25.12
2022-10-11T16:02:10.601Z,25.09
2022-10-11T16:04:15.210Z,25.1
2022-10-11T16:06:19.510Z,25.14
2022-10-11T16:08:23.844Z,25.1
2022-10-11T16:10:28.251Z,25.06
2022-10-11T16:12:32.585Z,24.99
2022-10-11T16:14:36.902Z,24.93
2022-10-11T16:16:41.342Z,24.89
2022-10-11T16:18:45.748Z,24.87
2022-10-11T16:20:50.087Z,24.86
2022-10-11T16:22:54.488Z,24.8
2022-10-11T16:24:58.805Z,24.74
2022-10-11T16:27:03.171Z,24.71
2022-10-11T16:29:07.516Z,24.68
2022-10-11T16:31:11.932Z,24.65
2022-10-11T16:33:16.271Z,24.64
2022-10-11T16:35:20.641Z,24.59
2022-10-11T16:37:25.032Z,24.58
2022-10-11T16:39:29.365Z,24.55
2022-10-11T16:41:33.939Z,24.52
2022-10-11T16:43:38.327Z,24.5
2022-10-11T16:45:42.682Z,24.53
2022-10-11T16:47:47.017Z,24.45
2022-10-11T16:49:51.339Z,24.16
2022-10-11T16:51:55.690Z,23.83
2022-10-11T16:54:00.108Z,23.51
2022-10-11T16:56:04.832Z,23.26
2022-10-11T16:58:10.671Z,23.07
2022-10-11T17:00:14.958Z,22.94
2022-10-11T17:02:19.349Z,22.76
2022-10-11T17:04:23.677Z,22.6
2022-10-11T17:06:28.046Z,22.43
2022-10-11T17:08:32.400Z,22.31
2022-10-11T17:10:36.742Z,22.19
2022-10-11T17:12:41.064Z,22.09
2022-10-11T17:14:52.597Z,22
2022-10-11T17:16:56.912Z,21.95
2022-10-11T17:19:01.302Z,21.94
2022-10-11T17:21:05.680Z,22.09
2022-10-11T17:23:10.047Z,22.29
2022-10-11T17:25:14.455Z,22.49
2022-10-11T17:27:18.810Z,22.71
2022-10-11T17:29:23.204Z,22.9
2022-10-11T17:31:27.527Z,23.05
2022-10-11T17:33:31.865Z,23.19
2022-10-11T17:35:36.275Z,23.29
2022-10-11T17:37:40.685Z,23.37
2022-10-11T17:39:45.102Z,23.45
2022-10-11T17:41:49.471Z,23.5
2022-10-11T17:43:53.844Z,23.56
2022-10-11T17:45:58.269Z,23.59
2022-10-11T17:48:02.625Z,23.63
2022-10-11T17:50:06.947Z,23.65
2022-10-11T17:52:11.343Z,23.7
2022-10-11T17:54:15.707Z,23.73
2022-10-11T17:56:22.809Z,23.76
2022-10-11T17:58:39.793Z,23.8
2022-10-11T18:00:44.247Z,23.84
2022-10-11T18:02:49.111Z,23.84
2022-10-11T18:04:53.996Z,23.84
2022-10-11T18:06:58.310Z,23.86
2022-10-11T18:09:02.662Z,23.87
2022-10-11T18:11:07.356Z,23.87
2022-10-11T18:13:15.292Z,23.88
2022-10-11T18:15:19.800Z,23.87
2022-10-11T18:17:24.155Z,23.88
2022-10-11T18:19:28.464Z,23.89
2022-10-11T18:21:34.464Z,23.94
2022-10-11T18:23:39.199Z,23.99
2022-10-11T18:25:43.660Z,24.01
2022-10-11T18:27:48.095Z,24.03
2022-10-11T18:29:52.442Z,24.04
2022-10-11T18:31:56.802Z,24.05
2022-10-11T18:34:01.144Z,24.03
2022-10-11T18:36:05.479Z,24.03
2022-10-11T18:38:09.859Z,24.04
2022-10-11T18:40:14.232Z,24
2022-10-11T18:42:18.571Z,23.97
2022-10-11T18:44:22.921Z,23.95
2022-10-11T18:46:27.299Z,23.97
2022-10-11T18:48:31.657Z,23.96
2022-10-11T18:50:36.094Z,23.98
2022-10-11T18:52:44.412Z,23.99
2022-10-11T18:54:48.916Z,24.02
2022-10-11T18:56:53.225Z,24.04
2022-10-11T18:58:57.540Z,24.05
2022-10-11T19:01:01.950Z,24.02
2022-10-11T19:03:06.578Z,24.01
2022-10-11T19:05:10.950Z,24
2022-10-11T19:07:15.321Z,24.01
2022-10-11T19:09:19.683Z,23.98
2022-10-11T19:11:24.019Z,23.97
2022-10-11T19:13:28.369Z,23.96
2022-10-11T19:15:32.680Z,23.95
2022-10-11T19:17:37.031Z,23.95
2022-10-11T19:19:41.380Z,23.94
2022-10-11T19:21:45.696Z,23.95
2022-10-11T19:23:50.249Z,23.94
2022-10-11T19:25:54.594Z,23.92
2022-10-11T19:27:58.952Z,23.9
2022-10-11T19:30:03.312Z,23.89
2022-10-11T19:32:07.718Z,23.9
2022-10-11T19:34:12.103Z,23.95
2022-10-11T19:36:16.500Z,23.99
2022-10-11T19:40:26.539Z,24.06
2022-10-11T19:42:36.583Z,24.09
2022-10-11T19:44:41.015Z,24.14
2022-10-11T19:46:53.221Z,24.17
2022-10-11T19:48:57.760Z,24.18
2022-10-11T19:51:02.227Z,24.03
2022-10-11T19:53:06.593Z,24
2022-10-11T19:55:10.999Z,23.97
2022-10-11T19:57:15.473Z,23.96
2022-10-11T19:59:19.825Z,23.95
2022-10-11T20:01:24.396Z,23.92
2022-10-11T20:03:28.981Z,23.92
2022-10-11T20:05:33.354Z,23.88
2022-10-11T20:07:37.780Z,23.86
2022-10-11T20:09:42.212Z,23.88
2022-10-11T20:11:46.568Z,23.86
2022-10-11T20:13:50.873Z,23.83
2022-10-11T20:15:55.214Z,23.84
2022-10-11T20:17:59.546Z,23.83
2022-10-11T20:20:03.899Z,23.78
2022-10-11T20:22:08.249Z,23.76
2022-10-11T20:24:12.594Z,23.73
2022-10-11T20:26:16.929Z,23.72
2022-10-11T20:28:21.314Z,23.71
2022-10-11T20:30:25.771Z,23.7
2022-10-11T20:32:30.193Z,23.7
2022-10-11T20:34:34.481Z,23.68
2022-10-11T20:36:38.865Z,23.67
2022-10-11T20:38:44.101Z,23.68
2022-10-11T20:40:48.508Z,23.68
2022-10-11T20:42:52.917Z,23.67
2022-10-11T20:44:57.267Z,23.65
2022-10-11T20:47:04.131Z,23.64
2022-10-11T20:49:08.669Z,23.6
2022-10-11T20:51:13.030Z,23.57
2022-10-11T20:53:17.355Z,23.53
2022-10-11T20:55:21.707Z,23.5
2022-10-11T20:57:26.037Z,23.48
2022-10-11T20:59:30.363Z,23.44
2022-10-11T21:01:34.902Z,23.42
2022-10-11T21:03:39.660Z,23.39
2022-10-11T21:05:44.040Z,23.38
2022-10-11T21:07:48.354Z,23.36
2022-10-11T21:09:52.685Z,23.35
2022-10-11T21:11:57.030Z,23.32
2022-10-11T21:14:01.371Z,23.29
2022-10-11T21:16:05.702Z,23.28
2022-10-11T21:18:10.118Z,23.26
2022-10-11T21:20:17.218Z,23.24
2022-10-11T21:22:21.587Z,23.22
2022-10-11T21:24:25.936Z,23.2
2022-10-11T21:26:30.295Z,23.18
2022-10-11T21:28:34.670Z,23.16
2022-10-11T21:30:39.263Z,23.16
2022-10-11T21:32:43.617Z,23.15
2022-10-11T21:34:47.961Z,23.12
2022-10-11T21:36:52.271Z,23.11
2022-10-11T21:38:56.567Z,23.09
2022-10-11T21:41:00.929Z,23.08
2022-10-11T21:43:05.260Z,23.07
2022-10-11T21:45:09.592Z,23.05
2022-10-11T21:47:13.961Z,23.04
2022-10-11T21:49:18.279Z,23.03
2022-10-11T21:51:22.649Z,23.02
2022-10-11T21:53:26.968Z,23.01
2022-10-11T21:55:31.293Z,23.01
2022-10-11T21:57:35.625Z,23
2022-10-11T21:59:39.939Z,23
2022-10-11T22:01:44.310Z,22.98
2022-10-11T22:03:48.916Z,22.97
2022-10-11T22:05:53.397Z,22.96
2022-10-11T22:07:57.908Z,22.96
2022-10-11T22:10:02.438Z,22.94
2022-10-11T22:12:07.103Z,22.93
2022-10-11T22:14:16.699Z,22.92
2022-10-11T22:16:21.269Z,22.92
2022-10-11T22:18:25.832Z,22.92
2022-10-11T22:20:36.437Z,22.9
2022-10-11T22:22:40.938Z,22.9
2022-10-11T22:24:45.429Z,22.9
2022-10-11T22:26:49.937Z,22.9
2022-10-11T22:28:54.546Z,22.9
2022-10-11T22:30:59.283Z,22.89
2022-10-11T22:33:03.826Z,22.87
2022-10-11T22:35:08.365Z,22.87
2022-10-11T22:37:12.848Z,22.87
2022-10-11T22:39:17.565Z,22.85
2022-10-11T22:41:22.130Z,22.83
2022-10-11T22:43:26.666Z,22.81
2022-10-11T22:45:31.187Z,22.79
2022-10-11T22:47:36.001Z,22.79
2022-10-11T22:49:41.552Z,22.78
2022-10-11T22:51:46.058Z,22.77
2022-10-11T22:53:50.557Z,22.77
2022-10-11T22:55:55.171Z,22.77
2022-10-11T22:57:59.670Z,22.76
2022-10-11T23:00:04.181Z,22.74
2022-10-11T23:02:08.745Z,22.74
2022-10-11T23:04:13.244Z,22.74
2022-10-11T23:06:17.725Z,22.74
2022-10-11T23:08:22.206Z,22.73
2022-10-11T23:10:26.730Z,22.73
2022-10-11T23:12:31.249Z,22.73
2022-10-11T23:14:35.785Z,22.72
2022-10-11T23:16:40.272Z,22.7
2022-10-11T23:18:44.795Z,22.69
2022-10-11T23:20:49.308Z,22.69
2022-10-11T23:22:53.822Z,22.68
2022-10-11T23:24:58.320Z,22.67
2022-10-11T23:27:02.795Z,22.67
2022-10-11T23:29:07.278Z,22.66
2022-10-11T23:31:11.823Z,22.65
2022-10-11T23:33:16.333Z,22.65
2022-10-11T23:35:21.059Z,22.65
2022-10-11T23:37:25.670Z,22.63
2022-10-11T23:39:30.209Z,22.6
2022-10-11T23:41:34.729Z,22.59
2022-10-11T23:43:39.237Z,22.57
2022-10-11T23:45:43.773Z,22.56
2022-10-11T23:47:48.293Z,22.53
2022-10-11T23:49:52.801Z,22.53
2022-10-11T23:51:57.319Z,22.52
2022-10-11T23:54:01.820Z,22.51
2022-10-11T23:56:06.327Z,22.49
2022-10-11T23:58:10.700Z,22.46
